sensor_id;sensor_type;location;lat;lon;timestamp;P1;durP1;ratioP1;P2;durP2;ratioP2
45734;SDS011;31446;49.632;8.328;2023-07-31T00:07:16;5.45;;;1.23;;
45734;SDS011;31446;49.632;8.328;2023-07-31T00:22:22;9.18;;;1.67;;
45734;SDS011;31446;49.632;8.328;2023-07-31T00:37:28;10.88;;;1.88;;
45734;SDS011;31446;49.632;8.328;2023-07-31T00:52:34;7.60;;;1.90;;
45734;SDS011;31446;49.632;8.328;2023-07-31T01:39:00;4.38;;;1.60;;
45734;SDS011;31446;49.632;8.328;2023-07-31T01:54:07;5.22;;;1.48;;
45734;SDS011;31446;49.632;8.328;2023-07-31T02:09:13;10.57;;;1.90;;
45734;SDS011;31446;49.632;8.328;2023-07-31T02:24:19;8.30;;;2.00;;
45734;SDS011;31446;49.632;8.328;2023-07-31T02:39:26;8.10;;;2.13;;
45734;SDS011;31446;49.632;8.328;2023-07-31T02:54:32;9.48;;;1.92;;
45734;SDS011;31446;49.632;8.328;2023-07-31T03:09:38;10.85;;;2.30;;
45734;SDS011;31446;49.632;8.328;2023-07-31T03:24:44;4.25;;;1.98;;
45734;SDS011;31446;49.632;8.328;2023-07-31T03:39:50;5.43;;;1.50;;
45734;SDS011;31446;49.632;8.328;2023-07-31T03:54:56;7.07;;;2.00;;
45734;SDS011;31446;49.632;8.328;2023-07-31T04:10:02;7.25;;;2.00;;
45734;SDS011;31446;49.632;8.328;2023-07-31T04:25:09;8.73;;;2.05;;
45734;SDS011;31446;49.632;8.328;2023-07-31T04:40:15;5.32;;;1.48;;
45734;SDS011;31446;49.632;8.328;2023-07-31T04:55:21;7.35;;;1.90;;
45734;SDS011;31446;49.632;8.328;2023-07-31T05:10:27;6.10;;;2.22;;
45734;SDS011;31446;49.632;8.328;2023-07-31T05:25:34;4.25;;;1.95;;
45734;SDS011;31446;49.632;8.328;2023-07-31T05:40:40;12.40;;;2.53;;
45734;SDS011;31446;49.632;8.328;2023-07-31T05:55:48;10.93;;;2.05;;
45734;SDS011;31446;49.632;8.328;2023-07-31T06:10:54;9.18;;;1.80;;
45734;SDS011;31446;49.632;8.328;2023-07-31T06:26:00;7.55;;;2.03;;
45734;SDS011;31446;49.632;8.328;2023-07-31T06:41:06;8.25;;;2.75;;
45734;SDS011;31446;49.632;8.328;2023-07-31T06:56:13;8.50;;;2.13;;
45734;SDS011;31446;49.632;8.328;2023-07-31T07:11:19;13.30;;;2.40;;
45734;SDS011;31446;49.632;8.328;2023-07-31T07:26:25;8.50;;;2.97;;
45734;SDS011;31446;49.632;8.328;2023-07-31T07:41:31;7.15;;;1.98;;
45734;SDS011;31446;49.632;8.328;2023-07-31T07:56:37;7.65;;;2.42;;
45734;SDS011;31446;49.632;8.328;2023-07-31T08:11:43;6.35;;;2.72;;
45734;SDS011;31446;49.632;8.328;2023-07-31T08:26:49;12.35;;;2.78;;
45734;SDS011;31446;49.632;8.328;2023-07-31T08:42:00;5.68;;;2.67;;
45734;SDS011;31446;49.632;8.328;2023-07-31T08:57:06;7.43;;;2.47;;
45734;SDS011;31446;49.632;8.328;2023-07-31T09:12:13;8.43;;;2.42;;
45734;SDS011;31446;49.632;8.328;2023-07-31T09:27:19;9.38;;;3.05;;
45734;SDS011;31446;49.632;8.328;2023-07-31T09:42:28;7.97;;;2.60;;
45734;SDS011;31446;49.632;8.328;2023-07-31T09:57:34;8.90;;;3.08;;
45734;SDS011;31446;49.632;8.328;2023-07-31T10:12:45;7.72;;;3.03;;
45734;SDS011;31446;49.632;8.328;2023-07-31T10:27:53;10.60;;;3.50;;
45734;SDS011;31446;49.632;8.328;2023-07-31T10:43:00;8.35;;;3.00;;
45734;SDS011;31446;49.632;8.328;2023-07-31T10:58:10;10.77;;;2.65;;
45734;SDS011;31446;49.632;8.328;2023-07-31T11:13:17;5.78;;;2.60;;
45734;SDS011;31446;49.632;8.328;2023-07-31T11:28:24;4.28;;;2.50;;
45734;SDS011;31446;49.632;8.328;2023-07-31T11:43:30;8.25;;;3.03;;
45734;SDS011;31446;49.632;8.328;2023-07-31T11:58:38;6.78;;;2.63;;
45734;SDS011;31446;49.632;8.328;2023-07-31T12:13:46;5.82;;;2.50;;
45734;SDS011;31446;49.632;8.328;2023-07-31T12:28:54;6.78;;;2.15;;
45734;SDS011;31446;49.632;8.328;2023-07-31T12:44:01;3.47;;;2.50;;
45734;SDS011;31446;49.632;8.328;2023-07-31T12:59:07;6.88;;;2.60;;
45734;SDS011;31446;49.632;8.328;2023-07-31T13:14:13;11.63;;;3.10;;
45734;SDS011;31446;49.632;8.328;2023-07-31T13:29:20;6.30;;;2.78;;
45734;SDS011;31446;49.632;8.328;2023-07-31T13:44:27;11.90;;;2.63;;
45734;SDS011;31446;49.632;8.328;2023-07-31T13:59:33;5.13;;;2.17;;
45734;SDS011;31446;49.632;8.328;2023-07-31T14:14:39;9.48;;;2.78;;
45734;SDS011;31446;49.632;8.328;2023-07-31T14:29:45;6.68;;;2.55;;
45734;SDS011;31446;49.632;8.328;2023-07-31T14:44:51;5.38;;;2.47;;
45734;SDS011;31446;49.632;8.328;2023-07-31T14:59:57;5.00;;;2.35;;
45734;SDS011;31446;49.632;8.328;2023-07-31T15:15:04;4.40;;;1.98;;
45734;SDS011;31446;49.632;8.328;2023-07-31T15:30:11;5.25;;;2.50;;
45734;SDS011;31446;49.632;8.328;2023-07-31T15:45:18;6.10;;;2.55;;
45734;SDS011;31446;49.632;8.328;2023-07-31T16:00:24;5.32;;;2.80;;
45734;SDS011;31446;49.632;8.328;2023-07-31T16:15:30;9.43;;;2.65;;
45734;SDS011;31446;49.632;8.328;2023-07-31T16:30:36;11.65;;;3.78;;
45734;SDS011;31446;49.632;8.328;2023-07-31T16:45:44;13.98;;;3.15;;
45734;SDS011;31446;49.632;8.328;2023-07-31T17:00:52;10.07;;;3.22;;
45734;SDS011;31446;49.632;8.328;2023-07-31T17:16:02;13.25;;;5.13;;
45734;SDS011;31446;49.632;8.328;2023-07-31T17:31:08;6.22;;;3.45;;
45734;SDS011;31446;49.632;8.328;2023-07-31T17:46:15;12.85;;;3.58;;
45734;SDS011;31446;49.632;8.328;2023-07-31T18:01:21;7.95;;;2.80;;
45734;SDS011;31446;49.632;8.328;2023-07-31T18:16:27;6.00;;;2.55;;
45734;SDS011;31446;49.632;8.328;2023-07-31T18:31:33;6.25;;;2.28;;
45734;SDS011;31446;49.632;8.328;2023-07-31T18:46:39;7.13;;;2.60;;
45734;SDS011;31446;49.632;8.328;2023-07-31T19:01:48;7.30;;;2.88;;
45734;SDS011;31446;49.632;8.328;2023-07-31T19:16:55;4.72;;;2.45;;
45734;SDS011;31446;49.632;8.328;2023-07-31T19:32:01;6.22;;;2.63;;
45734;SDS011;31446;49.632;8.328;2023-07-31T19:47:09;3.20;;;2.30;;
45734;SDS011;31446;49.632;8.328;2023-07-31T20:02:16;5.85;;;2.28;;
45734;SDS011;31446;49.632;8.328;2023-07-31T20:33:16;6.53;;;2.80;;
45734;SDS011;31446;49.632;8.328;2023-07-31T20:48:22;7.50;;;2.95;;
45734;SDS011;31446;49.632;8.328;2023-07-31T21:03:28;4.88;;;2.70;;
45734;SDS011;31446;49.632;8.328;2023-07-31T21:18:34;5.25;;;2.75;;
45734;SDS011;31446;49.632;8.328;2023-07-31T21:33:41;5.55;;;2.53;;
45734;SDS011;31446;49.632;8.328;2023-07-31T21:48:47;5.18;;;2.35;;
45734;SDS011;31446;49.632;8.328;2023-07-31T22:03:53;5.50;;;2.53;;
45734;SDS011;31446;49.632;8.328;2023-07-31T22:18:59;7.43;;;3.03;;
45734;SDS011;31446;49.632;8.328;2023-07-31T22:34:05;5.32;;;3.28;;
45734;SDS011;31446;49.632;8.328;2023-07-31T22:49:11;6.47;;;3.25;;
45734;SDS011;31446;49.632;8.328;2023-07-31T23:04:17;6.03;;;3.15;;
45734;SDS011;31446;49.632;8.328;2023-07-31T23:19:23;8.95;;;3.53;;
45734;SDS011;31446;49.632;8.328;2023-07-31T23:34:30;12.27;;;4.00;;
45734;SDS011;31446;49.632;8.328;2023-07-31T23:49:36;10.65;;;4.20;;
